sensor_id;sensor_type;location;lat;lon;timestamp;P1;durP1;ratioP1;P2;durP2;ratioP2
20884;SDS011;10602;48.000;9.654;2024-01-10T07:06:16;29.67;;;14.50;;
20884;SDS011;10602;48.000;9.654;2024-01-10T07:08:49;27.50;;;14.13;;
20884;SDS011;10602;48.000;9.654;2024-01-10T07:11:20;31.40;;;15.27;;
20884;SDS011;10602;48.000;9.654;2024-01-10T07:13:53;29.03;;;14.40;;
20884;SDS011;10602;48.000;9.654;2024-01-10T07:16:27;30.60;;;15.27;;
20884;SDS011;10602;48.000;9.654;2024-01-10T07:18:57;26.83;;;15.30;;
20884;SDS011;10602;48.000;9.654;2024-01-10T07:21:27;29.30;;;15.67;;
20884;SDS011;10602;48.000;9.654;2024-01-10T07:23:56;30.33;;;16.60;;
20884;SDS011;10602;48.000;9.654;2024-01-10T07:26:27;28.87;;;16.60;;
20884;SDS011;10602;48.000;9.654;2024-01-10T07:28:55;24.73;;;13.90;;
20884;SDS011;10602;48.000;9.654;2024-01-10T07:31:26;25.87;;;14.77;;
20884;SDS011;10602;48.000;9.654;2024-01-10T07:33:54;24.57;;;13.63;;
20884;SDS011;10602;48.000;9.654;2024-01-10T07:36:23;27.03;;;13.90;;
20884;SDS011;10602;48.000;9.654;2024-01-10T07:38:58;29.70;;;14.30;;
20884;SDS011;10602;48.000;9.654;2024-01-10T07:41:26;26.90;;;14.23;;
20884;SDS011;10602;48.000;9.654;2024-01-10T07:43:55;26.07;;;14.03;;
20884;SDS011;10602;48.000;9.654;2024-01-10T07:46:23;27.20;;;13.77;;
20884;SDS011;10602;48.000;9.654;2024-01-10T07:48:52;25.63;;;14.27;;
20884;SDS011;10602;48.000;9.654;2024-01-10T07:51:23;28.63;;;14.37;;
20884;SDS011;10602;48.000;9.654;2024-01-10T07:53:55;30.67;;;16.47;;
20884;SDS011;10602;48.000;9.654;2024-01-10T07:56:30;29.70;;;15.10;;
20884;SDS011;10602;48.000;9.654;2024-01-10T07:58:59;29.03;;;15.03;;
20884;SDS011;10602;48.000;9.654;2024-01-10T08:01:26;30.77;;;16.57;;
20884;SDS011;10602;48.000;9.654;2024-01-10T08:03:54;31.13;;;16.17;;
20884;SDS011;10602;48.000;9.654;2024-01-10T08:06:22;25.10;;;14.77;;
20884;SDS011;10602;48.000;9.654;2024-01-10T08:08:52;28.67;;;16.50;;
20884;SDS011;10602;48.000;9.654;2024-01-10T08:11:19;30.40;;;16.90;;
20884;SDS011;10602;48.000;9.654;2024-01-10T08:13:47;29.87;;;15.97;;
20884;SDS011;10602;48.000;9.654;2024-01-10T08:16:17;31.90;;;16.23;;
20884;SDS011;10602;48.000;9.654;2024-01-10T08:18:51;34.80;;;18.60;;
20884;SDS011;10602;48.000;9.654;2024-01-10T08:21:21;40.40;;;21.60;;
20884;SDS011;10602;48.000;9.654;2024-01-10T08:23:54;41.93;;;21.60;;
20884;SDS011;10602;48.000;9.654;2024-01-10T08:26:30;31.93;;;18.80;;
20884;SDS011;10602;48.000;9.654;2024-01-10T08:28:59;33.17;;;17.17;;
20884;SDS011;10602;48.000;9.654;2024-01-10T08:31:26;33.80;;;17.93;;
20884;SDS011;10602;48.000;9.654;2024-01-10T08:33:55;32.57;;;17.13;;
20884;SDS011;10602;48.000;9.654;2024-01-10T08:36:22;29.70;;;17.47;;
20884;SDS011;10602;48.000;9.654;2024-01-10T08:38:53;28.17;;;15.17;;
20884;SDS011;10602;48.000;9.654;2024-01-10T08:41:20;30.63;;;16.40;;
20884;SDS011;10602;48.000;9.654;2024-01-10T08:43:48;31.33;;;17.20;;
20884;SDS011;10602;48.000;9.654;2024-01-10T08:46:17;32.37;;;17.13;;
20884;SDS011;10602;48.000;9.654;2024-01-10T08:48:46;37.97;;;19.80;;
20884;SDS011;10602;48.000;9.654;2024-01-10T08:51:15;32.03;;;17.77;;
20884;SDS011;10602;48.000;9.654;2024-01-10T08:53:43;29.23;;;16.30;;
20884;SDS011;10602;48.000;9.654;2024-01-10T08:56:17;28.07;;;17.30;;
20884;SDS011;10602;48.000;9.654;2024-01-10T08:58:54;33.10;;;17.57;;
20884;SDS011;10602;48.000;9.654;2024-01-10T09:01:24;31.70;;;18.03;;
20884;SDS011;10602;48.000;9.654;2024-01-10T09:04:00;30.87;;;17.33;;
20884;SDS011;10602;48.000;9.654;2024-01-10T09:06:29;26.63;;;16.07;;
20884;SDS011;10602;48.000;9.654;2024-01-10T09:09:05;28.47;;;16.03;;
20884;SDS011;10602;48.000;9.654;2024-01-10T09:11:38;28.37;;;15.80;;
20884;SDS011;10602;48.000;9.654;2024-01-10T09:14:10;29.03;;;17.50;;
20884;SDS011;10602;48.000;9.654;2024-01-10T09:16:39;27.30;;;15.83;;
20884;SDS011;10602;48.000;9.654;2024-01-10T09:19:07;58.77;;;27.83;;
20884;SDS011;10602;48.000;9.654;2024-01-10T09:21:42;29.60;;;17.67;;
20884;SDS011;10602;48.000;9.654;2024-01-10T09:24:18;33.80;;;16.27;;
20884;SDS011;10602;48.000;9.654;2024-01-10T09:26:46;31.47;;;16.53;;
20884;SDS011;10602;48.000;9.654;2024-01-10T09:29:27;26.67;;;14.80;;
20884;SDS011;10602;48.000;9.654;2024-01-10T09:31:57;27.17;;;15.63;;
20884;SDS011;10602;48.000;9.654;2024-01-10T09:34:26;28.80;;;15.87;;
20884;SDS011;10602;48.000;9.654;2024-01-10T09:37:07;25.80;;;15.67;;
20884;SDS011;10602;48.000;9.654;2024-01-10T10:18:18;33.70;;;18.83;;
20884;SDS011;10602;48.000;9.654;2024-01-10T10:20:48;32.27;;;18.60;;
20884;SDS011;10602;48.000;9.654;2024-01-10T10:23:20;30.90;;;18.17;;
20884;SDS011;10602;48.000;9.654;2024-01-10T10:25:48;33.17;;;18.93;;
20884;SDS011;10602;48.000;9.654;2024-01-10T10:34:08;27.90;;;18.97;;
20884;SDS011;10602;48.000;9.654;2024-01-10T10:36:17;29.37;;;20.67;;
20884;SDS011;10602;48.000;9.654;2024-01-10T10:38:55;27.97;;;18.90;;
20884;SDS011;10602;48.000;9.654;2024-01-10T10:41:36;30.13;;;20.57;;
20884;SDS011;10602;48.000;9.654;2024-01-10T10:44:18;29.80;;;19.60;;
20884;SDS011;10602;48.000;9.654;2024-01-10T10:47:02;29.23;;;20.47;;
20884;SDS011;10602;48.000;9.654;2024-01-10T10:49:26;29.27;;;19.43;;
20884;SDS011;10602;48.000;9.654;2024-01-10T10:52:01;33.07;;;20.80;;
20884;SDS011;10602;48.000;9.654;2024-01-10T10:54:31;30.23;;;20.10;;
20884;SDS011;10602;48.000;9.654;2024-01-10T10:57:00;30.20;;;21.07;;
20884;SDS011;10602;48.000;9.654;2024-01-10T10:59:29;32.60;;;21.67;;
20884;SDS011;10602;48.000;9.654;2024-01-10T11:02:00;31.60;;;20.53;;
20884;SDS011;10602;48.000;9.654;2024-01-10T11:04:28;45.00;;;28.03;;
20884;SDS011;10602;48.000;9.654;2024-01-10T11:06:56;41.87;;;28.17;;
20884;SDS011;10602;48.000;9.654;2024-01-10T11:09:24;36.07;;;24.57;;
20884;SDS011;10602;48.000;9.654;2024-01-10T11:20:30;35.10;;;21.03;;
20884;SDS011;10602;48.000;9.654;2024-01-10T11:25:44;34.83;;;20.00;;
20884;SDS011;10602;48.000;9.654;2024-01-10T11:28:12;34.77;;;20.67;;
20884;SDS011;10602;48.000;9.654;2024-01-10T11:30:49;36.23;;;20.20;;
20884;SDS011;10602;48.000;9.654;2024-01-10T11:33:22;32.47;;;19.73;;
20884;SDS011;10602;48.000;9.654;2024-01-10T11:36:07;34.70;;;18.63;;
20884;SDS011;10602;48.000;9.654;2024-01-10T11:38:49;34.60;;;19.50;;
20884;SDS011;10602;48.000;9.654;2024-01-10T11:44:33;37.97;;;20.03;;
20884;SDS011;10602;48.000;9.654;2024-01-10T11:46:40;32.30;;;18.90;;
20884;SDS011;10602;48.000;9.654;2024-01-10T11:49:07;34.83;;;18.87;;
20884;SDS011;10602;48.000;9.654;2024-01-10T11:51:36;28.90;;;17.20;;
20884;SDS011;10602;48.000;9.654;2024-01-10T11:54:05;30.53;;;17.33;;
20884;SDS011;10602;48.000;9.654;2024-01-10T11:56:37;32.50;;;17.83;;
20884;SDS011;10602;48.000;9.654;2024-01-10T11:59:11;35.70;;;18.23;;
20884;SDS011;10602;48.000;9.654;2024-01-10T12:01:42;35.73;;;18.67;;
20884;SDS011;10602;48.000;9.654;2024-01-10T12:04:09;37.57;;;19.73;;
20884;SDS011;10602;48.000;9.654;2024-01-10T12:06:37;36.17;;;20.33;;
20884;SDS011;10602;48.000;9.654;2024-01-10T12:09:06;37.97;;;18.77;;
20884;SDS011;10602;48.000;9.654;2024-01-10T12:11:41;38.50;;;20.07;;
20884;SDS011;10602;48.000;9.654;2024-01-10T12:14:08;35.37;;;19.60;;
20884;SDS011;10602;48.000;9.654;2024-01-10T12:16:37;35.07;;;19.97;;
20884;SDS011;10602;48.000;9.654;2024-01-10T12:19:05;35.93;;;18.43;;
20884;SDS011;10602;48.000;9.654;2024-01-10T12:21:32;36.80;;;19.83;;
20884;SDS011;10602;48.000;9.654;2024-01-10T12:24:02;38.07;;;19.03;;
20884;SDS011;10602;48.000;9.654;2024-01-10T12:26:32;31.63;;;18.07;;
20884;SDS011;10602;48.000;9.654;2024-01-10T12:29:00;30.63;;;17.27;;
20884;SDS011;10602;48.000;9.654;2024-01-10T12:31:29;34.27;;;17.93;;
20884;SDS011;10602;48.000;9.654;2024-01-10T12:34:02;33.20;;;18.20;;
20884;SDS011;10602;48.000;9.654;2024-01-10T12:36:26;38.53;;;19.80;;
20884;SDS011;10602;48.000;9.654;2024-01-10T12:38:54;30.40;;;18.07;;
20884;SDS011;10602;48.000;9.654;2024-01-10T12:41:22;34.20;;;18.63;;
20884;SDS011;10602;48.000;9.654;2024-01-10T12:43:52;31.40;;;16.13;;
20884;SDS011;10602;48.000;9.654;2024-01-10T12:46:21;30.70;;;16.93;;
20884;SDS011;10602;48.000;9.654;2024-01-10T12:48:58;32.90;;;17.33;;
20884;SDS011;10602;48.000;9.654;2024-01-10T12:51:31;35.23;;;18.40;;
20884;SDS011;10602;48.000;9.654;2024-01-10T12:53:59;32.63;;;17.70;;
20884;SDS011;10602;48.000;9.654;2024-01-10T12:56:27;34.23;;;18.00;;
20884;SDS011;10602;48.000;9.654;2024-01-10T12:58:55;37.10;;;19.30;;
20884;SDS011;10602;48.000;9.654;2024-01-10T13:01:23;38.67;;;19.73;;
20884;SDS011;10602;48.000;9.654;2024-01-10T13:03:52;38.97;;;19.87;;
20884;SDS011;10602;48.000;9.654;2024-01-10T13:06:19;48.27;;;22.43;;
20884;SDS011;10602;48.000;9.654;2024-01-10T13:08:48;37.73;;;18.57;;
20884;SDS011;10602;48.000;9.654;2024-01-10T13:11:15;31.20;;;17.00;;
20884;SDS011;10602;48.000;9.654;2024-01-10T13:13:43;36.00;;;19.00;;
20884;SDS011;10602;48.000;9.654;2024-01-10T13:16:11;34.63;;;18.40;;
20884;SDS011;10602;48.000;9.654;2024-01-10T13:18:38;37.27;;;17.73;;
20884;SDS011;10602;48.000;9.654;2024-01-10T13:21:06;36.90;;;18.83;;
20884;SDS011;10602;48.000;9.654;2024-01-10T13:23:33;36.23;;;18.23;;
20884;SDS011;10602;48.000;9.654;2024-01-10T13:26:02;37.90;;;19.40;;
20884;SDS011;10602;48.000;9.654;2024-01-10T13:28:29;35.17;;;18.10;;
20884;SDS011;10602;48.000;9.654;2024-01-10T13:30:57;36.33;;;18.07;;
20884;SDS011;10602;48.000;9.654;2024-01-10T13:33:24;36.27;;;17.77;;
20884;SDS011;10602;48.000;9.654;2024-01-10T13:35:52;34.50;;;17.93;;
20884;SDS011;10602;48.000;9.654;2024-01-10T13:38:20;31.67;;;16.27;;
20884;SDS011;10602;48.000;9.654;2024-01-10T13:40:49;35.93;;;15.93;;
20884;SDS011;10602;48.000;9.654;2024-01-10T13:43:16;33.27;;;17.10;;
20884;SDS011;10602;48.000;9.654;2024-01-10T13:45:44;35.30;;;16.00;;
20884;SDS011;10602;48.000;9.654;2024-01-10T13:48:11;30.03;;;15.93;;
20884;SDS011;10602;48.000;9.654;2024-01-10T13:50:39;30.70;;;15.73;;
20884;SDS011;10602;48.000;9.654;2024-01-10T13:53:07;40.30;;;18.67;;
20884;SDS011;10602;48.000;9.654;2024-01-10T13:55:34;32.80;;;16.40;;
20884;SDS011;10602;48.000;9.654;2024-01-10T13:58:02;37.13;;;17.73;;
20884;SDS011;10602;48.000;9.654;2024-01-10T14:00:30;33.77;;;17.10;;
20884;SDS011;10602;48.000;9.654;2024-01-10T14:02:57;34.83;;;16.87;;
20884;SDS011;10602;48.000;9.654;2024-01-10T14:05:25;37.40;;;18.33;;
20884;SDS011;10602;48.000;9.654;2024-01-10T14:07:56;40.70;;;19.30;;
20884;SDS011;10602;48.000;9.654;2024-01-10T14:10:24;37.47;;;18.50;;
20884;SDS011;10602;48.000;9.654;2024-01-10T14:12:51;42.17;;;20.30;;
20884;SDS011;10602;48.000;9.654;2024-01-10T14:15:19;36.33;;;18.60;;
20884;SDS011;10602;48.000;9.654;2024-01-10T14:17:46;36.57;;;18.33;;
20884;SDS011;10602;48.000;9.654;2024-01-10T14:20:14;37.83;;;18.30;;
20884;SDS011;10602;48.000;9.654;2024-01-10T14:22:42;34.13;;;17.60;;
20884;SDS011;10602;48.000;9.654;2024-01-10T14:25:10;35.40;;;17.53;;
20884;SDS011;10602;48.000;9.654;2024-01-10T14:27:39;35.70;;;17.67;;
20884;SDS011;10602;48.000;9.654;2024-01-10T14:30:07;35.17;;;18.40;;
20884;SDS011;10602;48.000;9.654;2024-01-10T14:32:34;30.07;;;15.13;;
20884;SDS011;10602;48.000;9.654;2024-01-10T14:35:03;29.67;;;15.07;;
20884;SDS011;10602;48.000;9.654;2024-01-10T14:37:31;33.03;;;17.00;;
20884;SDS011;10602;48.000;9.654;2024-01-10T14:39:58;33.77;;;15.27;;
20884;SDS011;10602;48.000;9.654;2024-01-10T14:42:26;29.57;;;15.87;;
20884;SDS011;10602;48.000;9.654;2024-01-10T14:44:53;33.13;;;15.80;;
20884;SDS011;10602;48.000;9.654;2024-01-10T14:47:21;31.73;;;15.70;;
20884;SDS011;10602;48.000;9.654;2024-01-10T14:49:48;30.23;;;15.50;;
20884;SDS011;10602;48.000;9.654;2024-01-10T14:52:16;31.03;;;16.13;;
20884;SDS011;10602;48.000;9.654;2024-01-10T14:54:43;36.40;;;15.60;;
20884;SDS011;10602;48.000;9.654;2024-01-10T14:57:11;28.70;;;14.83;;
20884;SDS011;10602;48.000;9.654;2024-01-10T14:59:39;35.97;;;18.17;;
20884;SDS011;10602;48.000;9.654;2024-01-10T15:02:07;38.33;;;17.40;;
20884;SDS011;10602;48.000;9.654;2024-01-10T15:04:38;31.87;;;15.03;;
20884;SDS011;10602;48.000;9.654;2024-01-10T15:07:06;38.27;;;16.87;;
20884;SDS011;10602;48.000;9.654;2024-01-10T15:09:34;33.83;;;16.63;;
20884;SDS011;10602;48.000;9.654;2024-01-10T15:12:05;33.77;;;15.93;;
20884;SDS011;10602;48.000;9.654;2024-01-10T15:14:36;35.70;;;19.00;;
20884;SDS011;10602;48.000;9.654;2024-01-10T15:17:07;38.67;;;19.17;;
20884;SDS011;10602;48.000;9.654;2024-01-10T15:19:36;35.90;;;17.67;;
20884;SDS011;10602;48.000;9.654;2024-01-10T15:22:04;33.73;;;17.37;;
20884;SDS011;10602;48.000;9.654;2024-01-10T15:24:31;31.83;;;15.27;;
20884;SDS011;10602;48.000;9.654;2024-01-10T15:26:59;37.90;;;16.43;;
20884;SDS011;10602;48.000;9.654;2024-01-10T15:29:28;33.73;;;15.80;;
20884;SDS011;10602;48.000;9.654;2024-01-10T15:31:56;35.87;;;15.87;;
20884;SDS011;10602;48.000;9.654;2024-01-10T15:34:23;35.30;;;15.37;;
20884;SDS011;10602;48.000;9.654;2024-01-10T15:36:51;42.90;;;18.07;;
20884;SDS011;10602;48.000;9.654;2024-01-10T15:39:19;36.93;;;15.23;;
20884;SDS011;10602;48.000;9.654;2024-01-10T15:41:47;34.40;;;16.63;;
20884;SDS011;10602;48.000;9.654;2024-01-10T15:44:18;40.93;;;17.50;;
20884;SDS011;10602;48.000;9.654;2024-01-10T15:46:45;38.93;;;19.20;;
20884;SDS011;10602;48.000;9.654;2024-01-10T15:49:13;38.73;;;15.90;;
20884;SDS011;10602;48.000;9.654;2024-01-10T15:51:41;36.37;;;16.43;;
20884;SDS011;10602;48.000;9.654;2024-01-10T15:54:09;32.07;;;15.10;;
20884;SDS011;10602;48.000;9.654;2024-01-10T15:56:39;36.60;;;15.67;;
20884;SDS011;10602;48.000;9.654;2024-01-10T15:59:07;33.90;;;16.83;;
20884;SDS011;10602;48.000;9.654;2024-01-10T16:01:35;34.40;;;15.23;;
20884;SDS011;10602;48.000;9.654;2024-01-10T16:04:02;33.10;;;14.43;;
20884;SDS011;10602;48.000;9.654;2024-01-10T16:06:32;31.53;;;14.00;;
20884;SDS011;10602;48.000;9.654;2024-01-10T16:09:02;33.90;;;14.50;;
20884;SDS011;10602;48.000;9.654;2024-01-10T16:11:45;35.57;;;14.80;;
20884;SDS011;10602;48.000;9.654;2024-01-10T16:14:22;41.27;;;16.47;;
20884;SDS011;10602;48.000;9.654;2024-01-10T16:16:57;34.93;;;15.37;;
20884;SDS011;10602;48.000;9.654;2024-01-10T16:19:25;38.37;;;16.20;;
20884;SDS011;10602;48.000;9.654;2024-01-10T16:21:52;37.10;;;17.40;;
20884;SDS011;10602;48.000;9.654;2024-01-10T16:24:20;34.37;;;15.27;;
20884;SDS011;10602;48.000;9.654;2024-01-10T16:26:48;33.47;;;15.03;;
20884;SDS011;10602;48.000;9.654;2024-01-10T16:29:16;37.23;;;16.97;;
20884;SDS011;10602;48.000;9.654;2024-01-10T16:31:45;35.77;;;17.27;;
20884;SDS011;10602;48.000;9.654;2024-01-10T16:34:13;37.50;;;16.33;;
20884;SDS011;10602;48.000;9.654;2024-01-10T16:36:40;38.87;;;17.30;;
20884;SDS011;10602;48.000;9.654;2024-01-10T16:39:08;30.70;;;15.10;;
20884;SDS011;10602;48.000;9.654;2024-01-10T16:41:36;31.37;;;14.47;;
20884;SDS011;10602;48.000;9.654;2024-01-10T16:44:04;33.57;;;15.83;;
20884;SDS011;10602;48.000;9.654;2024-01-10T16:46:32;33.77;;;15.73;;
20884;SDS011;10602;48.000;9.654;2024-01-10T16:48:59;37.53;;;17.60;;
20884;SDS011;10602;48.000;9.654;2024-01-10T16:51:28;32.80;;;16.23;;
20884;SDS011;10602;48.000;9.654;2024-01-10T16:53:55;38.47;;;18.73;;
20884;SDS011;10602;48.000;9.654;2024-01-10T16:56:23;37.20;;;16.00;;
20884;SDS011;10602;48.000;9.654;2024-01-10T16:58:51;36.40;;;18.07;;
20884;SDS011;10602;48.000;9.654;2024-01-10T17:01:18;40.13;;;17.87;;
20884;SDS011;10602;48.000;9.654;2024-01-10T17:03:46;36.03;;;16.77;;
20884;SDS011;10602;48.000;9.654;2024-01-10T17:06:13;33.30;;;16.10;;
20884;SDS011;10602;48.000;9.654;2024-01-10T17:08:41;39.23;;;18.67;;
20884;SDS011;10602;48.000;9.654;2024-01-10T17:11:09;42.13;;;18.17;;
20884;SDS011;10602;48.000;9.654;2024-01-10T17:13:37;33.93;;;16.90;;
20884;SDS011;10602;48.000;9.654;2024-01-10T17:16:06;36.77;;;17.33;;
20884;SDS011;10602;48.000;9.654;2024-01-10T17:18:34;33.27;;;15.50;;
20884;SDS011;10602;48.000;9.654;2024-01-10T17:21:02;38.67;;;16.87;;
20884;SDS011;10602;48.000;9.654;2024-01-10T17:23:31;37.60;;;17.47;;
20884;SDS011;10602;48.000;9.654;2024-01-10T17:25:58;32.93;;;15.80;;
20884;SDS011;10602;48.000;9.654;2024-01-10T17:28:26;35.53;;;16.47;;
20884;SDS011;10602;48.000;9.654;2024-01-10T17:30:54;37.47;;;17.97;;
20884;SDS011;10602;48.000;9.654;2024-01-10T17:33:22;34.77;;;16.17;;
20884;SDS011;10602;48.000;9.654;2024-01-10T17:35:50;37.60;;;16.73;;
20884;SDS011;10602;48.000;9.654;2024-01-10T17:38:17;36.73;;;15.70;;
20884;SDS011;10602;48.000;9.654;2024-01-10T17:40:45;29.57;;;14.37;;
20884;SDS011;10602;48.000;9.654;2024-01-10T17:43:13;30.50;;;13.90;;
20884;SDS011;10602;48.000;9.654;2024-01-10T17:45:41;33.23;;;15.13;;
20884;SDS011;10602;48.000;9.654;2024-01-10T17:48:08;31.17;;;14.10;;
20884;SDS011;10602;48.000;9.654;2024-01-10T17:50:36;33.47;;;14.80;;
20884;SDS011;10602;48.000;9.654;2024-01-10T17:53:04;32.47;;;14.93;;
20884;SDS011;10602;48.000;9.654;2024-01-10T17:55:31;28.67;;;13.13;;
20884;SDS011;10602;48.000;9.654;2024-01-10T17:57:59;27.33;;;14.27;;
20884;SDS011;10602;48.000;9.654;2024-01-10T18:00:26;32.43;;;15.20;;
20884;SDS011;10602;48.000;9.654;2024-01-10T18:02:55;41.13;;;17.30;;
20884;SDS011;10602;48.000;9.654;2024-01-10T18:05:23;32.07;;;15.20;;
20884;SDS011;10602;48.000;9.654;2024-01-10T18:07:51;31.63;;;14.17;;
20884;SDS011;10602;48.000;9.654;2024-01-10T18:10:35;32.47;;;14.43;;
20884;SDS011;10602;48.000;9.654;2024-01-10T18:12:59;31.83;;;15.47;;
20884;SDS011;10602;48.000;9.654;2024-01-10T18:15:28;27.63;;;14.27;;
20884;SDS011;10602;48.000;9.654;2024-01-10T18:17:59;30.77;;;14.67;;
20884;SDS011;10602;48.000;9.654;2024-01-10T18:20:26;34.00;;;15.20;;
20884;SDS011;10602;48.000;9.654;2024-01-10T18:22:54;37.87;;;16.80;;
20884;SDS011;10602;48.000;9.654;2024-01-10T18:25:22;31.07;;;16.23;;
20884;SDS011;10602;48.000;9.654;2024-01-10T18:27:51;33.27;;;15.63;;
20884;SDS011;10602;48.000;9.654;2024-01-10T18:30:19;35.40;;;16.87;;
20884;SDS011;10602;48.000;9.654;2024-01-10T18:32:46;30.83;;;15.40;;
20884;SDS011;10602;48.000;9.654;2024-01-10T18:35:14;29.80;;;15.90;;
20884;SDS011;10602;48.000;9.654;2024-01-10T18:37:41;31.47;;;15.50;;
20884;SDS011;10602;48.000;9.654;2024-01-10T18:40:10;32.43;;;16.03;;
20884;SDS011;10602;48.000;9.654;2024-01-10T18:42:37;37.50;;;17.67;;
20884;SDS011;10602;48.000;9.654;2024-01-10T18:45:06;36.10;;;17.80;;
20884;SDS011;10602;48.000;9.654;2024-01-10T18:47:34;38.47;;;19.03;;
20884;SDS011;10602;48.000;9.654;2024-01-10T18:50:04;37.53;;;17.67;;
20884;SDS011;10602;48.000;9.654;2024-01-10T18:52:32;35.17;;;17.23;;
20884;SDS011;10602;48.000;9.654;2024-01-10T18:55:01;32.77;;;16.83;;
20884;SDS011;10602;48.000;9.654;2024-01-10T18:57:30;35.47;;;17.10;;
20884;SDS011;10602;48.000;9.654;2024-01-10T18:59:57;33.20;;;17.00;;
20884;SDS011;10602;48.000;9.654;2024-01-10T19:02:25;38.83;;;20.23;;
20884;SDS011;10602;48.000;9.654;2024-01-10T19:04:53;38.63;;;19.20;;
20884;SDS011;10602;48.000;9.654;2024-01-10T19:07:20;38.50;;;18.93;;
20884;SDS011;10602;48.000;9.654;2024-01-10T19:09:48;39.37;;;18.67;;
20884;SDS011;10602;48.000;9.654;2024-01-10T19:12:15;36.80;;;17.97;;
20884;SDS011;10602;48.000;9.654;2024-01-10T19:14:43;34.47;;;17.57;;
